sensor_id;sensor_type;location;lat;lon;timestamp;P1;durP1;ratioP1;P2;durP2;ratioP2
33270;SDS011;53180;51.344;6.152;2022-07-25T00:02:27;15.35;;;3.10;;
33270;SDS011;53180;51.344;6.152;2022-07-25T00:04:56;3.42;;;2.22;;
33270;SDS011;53180;51.344;6.152;2022-07-25T00:07:26;3.95;;;2.60;;
33270;SDS011;53180;51.344;6.152;2022-07-25T00:09:54;3.90;;;2.53;;
33270;SDS011;53180;51.344;6.152;2022-07-25T00:12:23;3.50;;;2.30;;
33270;SDS011;53180;51.344;6.152;2022-07-25T00:14:52;2.92;;;2.15;;
33270;SDS011;53180;51.344;6.152;2022-07-25T00:17:20;10.65;;;2.88;;
33270;SDS011;53180;51.344;6.152;2022-07-25T00:19:48;4.22;;;2.95;;
33270;SDS011;53180;51.344;6.152;2022-07-25T00:22:17;3.90;;;2.38;;
33270;SDS011;53180;51.344;6.152;2022-07-25T00:24:46;3.33;;;2.67;;
33270;SDS011;53180;51.344;6.152;2022-07-25T00:27:15;4.95;;;2.83;;
33270;SDS011;53180;51.344;6.152;2022-07-25T00:29:43;4.60;;;2.80;;
33270;SDS011;53180;51.344;6.152;2022-07-25T00:32:12;5.20;;;3.20;;
33270;SDS011;53180;51.344;6.152;2022-07-25T00:34:40;3.83;;;2.63;;
33270;SDS011;53180;51.344;6.152;2022-07-25T00:37:08;3.30;;;2.63;;
33270;SDS011;53180;51.344;6.152;2022-07-25T00:39:37;3.33;;;2.22;;
33270;SDS011;53180;51.344;6.152;2022-07-25T00:42:07;4.30;;;2.67;;
33270;SDS011;53180;51.344;6.152;2022-07-25T00:44:35;6.68;;;2.70;;
33270;SDS011;53180;51.344;6.152;2022-07-25T00:47:03;3.25;;;2.25;;
33270;SDS011;53180;51.344;6.152;2022-07-25T00:49:32;3.50;;;2.63;;
33270;SDS011;53180;51.344;6.152;2022-07-25T00:52:00;4.60;;;2.80;;
33270;SDS011;53180;51.344;6.152;2022-07-25T00:54:29;3.40;;;2.72;;
33270;SDS011;53180;51.344;6.152;2022-07-25T00:56:57;3.88;;;2.63;;
33270;SDS011;53180;51.344;6.152;2022-07-25T00:59:28;3.30;;;2.60;;
33270;SDS011;53180;51.344;6.152;2022-07-25T01:01:57;3.10;;;2.28;;
33270;SDS011;53180;51.344;6.152;2022-07-25T01:04:29;4.28;;;2.85;;
33270;SDS011;53180;51.344;6.152;2022-07-25T01:06:58;5.35;;;2.58;;
33270;SDS011;53180;51.344;6.152;2022-07-25T01:09:27;3.88;;;2.60;;
33270;SDS011;53180;51.344;6.152;2022-07-25T01:11:55;4.13;;;2.85;;
33270;SDS011;53180;51.344;6.152;2022-07-25T01:14:24;4.75;;;2.53;;
33270;SDS011;53180;51.344;6.152;2022-07-25T01:16:53;3.92;;;2.80;;
33270;SDS011;53180;51.344;6.152;2022-07-25T01:19:23;3.50;;;2.72;;
33270;SDS011;53180;51.344;6.152;2022-07-25T01:21:53;3.50;;;2.70;;
33270;SDS011;53180;51.344;6.152;2022-07-25T01:24:21;3.90;;;2.83;;
33270;SDS011;53180;51.344;6.152;2022-07-25T01:26:49;3.63;;;2.22;;
33270;SDS011;53180;51.344;6.152;2022-07-25T01:29:18;3.83;;;2.83;;
33270;SDS011;53180;51.344;6.152;2022-07-25T01:31:46;4.32;;;2.70;;
33270;SDS011;53180;51.344;6.152;2022-07-25T01:34:14;4.28;;;2.72;;
33270;SDS011;53180;51.344;6.152;2022-07-25T01:36:43;4.38;;;2.58;;
33270;SDS011;53180;51.344;6.152;2022-07-25T01:39:12;3.25;;;2.47;;
33270;SDS011;53180;51.344;6.152;2022-07-25T01:41:41;4.53;;;3.03;;
33270;SDS011;53180;51.344;6.152;2022-07-25T01:44:09;5.07;;;2.80;;
33270;SDS011;53180;51.344;6.152;2022-07-25T01:46:37;3.58;;;2.53;;
33270;SDS011;53180;51.344;6.152;2022-07-25T01:49:06;2.95;;;2.25;;
33270;SDS011;53180;51.344;6.152;2022-07-25T01:51:34;3.55;;;2.47;;
33270;SDS011;53180;51.344;6.152;2022-07-25T01:54:03;3.03;;;2.05;;
33270;SDS011;53180;51.344;6.152;2022-07-25T01:56:37;5.57;;;2.90;;
33270;SDS011;53180;51.344;6.152;2022-07-25T01:59:13;5.00;;;2.83;;
33270;SDS011;53180;51.344;6.152;2022-07-25T02:01:42;4.78;;;2.80;;
33270;SDS011;53180;51.344;6.152;2022-07-25T02:04:10;5.00;;;2.90;;
33270;SDS011;53180;51.344;6.152;2022-07-25T02:06:39;5.03;;;3.15;;
33270;SDS011;53180;51.344;6.152;2022-07-25T02:09:07;4.60;;;2.38;;
33270;SDS011;53180;51.344;6.152;2022-07-25T02:11:37;5.35;;;3.15;;
33270;SDS011;53180;51.344;6.152;2022-07-25T02:14:06;4.13;;;2.88;;
33270;SDS011;53180;51.344;6.152;2022-07-25T02:16:35;4.53;;;2.83;;
33270;SDS011;53180;51.344;6.152;2022-07-25T02:19:03;6.95;;;3.15;;
33270;SDS011;53180;51.344;6.152;2022-07-25T02:21:31;5.38;;;2.72;;
33270;SDS011;53180;51.344;6.152;2022-07-25T02:24:00;3.72;;;2.55;;
33270;SDS011;53180;51.344;6.152;2022-07-25T02:26:29;5.57;;;2.92;;
33270;SDS011;53180;51.344;6.152;2022-07-25T02:28:58;4.15;;;2.65;;
33270;SDS011;53180;51.344;6.152;2022-07-25T02:31:27;4.47;;;2.72;;
33270;SDS011;53180;51.344;6.152;2022-07-25T02:33:55;4.90;;;2.78;;
33270;SDS011;53180;51.344;6.152;2022-07-25T02:36:23;5.78;;;3.10;;
33270;SDS011;53180;51.344;6.152;2022-07-25T02:38:52;4.93;;;3.08;;
33270;SDS011;53180;51.344;6.152;2022-07-25T02:41:20;3.63;;;2.53;;
33270;SDS011;53180;51.344;6.152;2022-07-25T02:43:48;5.63;;;2.88;;
33270;SDS011;53180;51.344;6.152;2022-07-25T02:46:18;6.88;;;2.22;;
33270;SDS011;53180;51.344;6.152;2022-07-25T02:48:46;3.15;;;2.25;;
33270;SDS011;53180;51.344;6.152;2022-07-25T02:51:15;7.75;;;2.65;;
33270;SDS011;53180;51.344;6.152;2022-07-25T02:53:43;4.82;;;2.55;;
33270;SDS011;53180;51.344;6.152;2022-07-25T02:56:23;3.42;;;2.45;;
33270;SDS011;53180;51.344;6.152;2022-07-25T02:58:55;4.18;;;2.58;;
33270;SDS011;53180;51.344;6.152;2022-07-25T03:01:25;2.95;;;2.38;;
33270;SDS011;53180;51.344;6.152;2022-07-25T03:03:54;4.35;;;2.85;;
33270;SDS011;53180;51.344;6.152;2022-07-25T03:06:22;5.72;;;2.78;;
33270;SDS011;53180;51.344;6.152;2022-07-25T03:08:50;5.53;;;3.10;;
33270;SDS011;53180;51.344;6.152;2022-07-25T03:11:19;4.40;;;2.78;;
33270;SDS011;53180;51.344;6.152;2022-07-25T03:13:48;5.40;;;2.53;;
33270;SDS011;53180;51.344;6.152;2022-07-25T03:16:16;3.25;;;2.30;;
33270;SDS011;53180;51.344;6.152;2022-07-25T03:18:46;4.53;;;2.90;;
33270;SDS011;53180;51.344;6.152;2022-07-25T03:21:14;3.10;;;2.25;;
33270;SDS011;53180;51.344;6.152;2022-07-25T03:23:42;4.55;;;2.67;;
33270;SDS011;53180;51.344;6.152;2022-07-25T03:26:17;5.38;;;2.70;;
33270;SDS011;53180;51.344;6.152;2022-07-25T03:28:46;3.75;;;2.47;;
33270;SDS011;53180;51.344;6.152;2022-07-25T03:31:14;3.78;;;2.30;;
33270;SDS011;53180;51.344;6.152;2022-07-25T03:33:42;2.92;;;1.95;;
33270;SDS011;53180;51.344;6.152;2022-07-25T03:36:12;3.13;;;2.10;;
33270;SDS011;53180;51.344;6.152;2022-07-25T03:38:40;3.45;;;2.33;;
33270;SDS011;53180;51.344;6.152;2022-07-25T03:41:09;4.05;;;2.67;;
33270;SDS011;53180;51.344;6.152;2022-07-25T03:43:38;4.13;;;2.20;;
33270;SDS011;53180;51.344;6.152;2022-07-25T03:46:06;3.13;;;2.35;;
33270;SDS011;53180;51.344;6.152;2022-07-25T03:48:35;3.88;;;2.38;;
33270;SDS011;53180;51.344;6.152;2022-07-25T03:51:03;3.00;;;2.30;;
33270;SDS011;53180;51.344;6.152;2022-07-25T03:53:34;4.22;;;2.40;;
33270;SDS011;53180;51.344;6.152;2022-07-25T03:56:22;3.60;;;2.45;;
33270;SDS011;53180;51.344;6.152;2022-07-25T03:58:50;4.60;;;2.40;;
33270;SDS011;53180;51.344;6.152;2022-07-25T04:01:19;2.63;;;2.08;;
33270;SDS011;53180;51.344;6.152;2022-07-25T04:03:47;4.20;;;2.60;;
33270;SDS011;53180;51.344;6.152;2022-07-25T04:06:16;3.20;;;2.42;;
33270;SDS011;53180;51.344;6.152;2022-07-25T04:08:46;4.00;;;2.53;;
33270;SDS011;53180;51.344;6.152;2022-07-25T04:11:14;4.95;;;2.15;;
33270;SDS011;53180;51.344;6.152;2022-07-25T04:13:43;3.17;;;2.17;;
33270;SDS011;53180;51.344;6.152;2022-07-25T04:16:11;5.72;;;2.70;;
33270;SDS011;53180;51.344;6.152;2022-07-25T04:18:48;3.40;;;2.40;;
33270;SDS011;53180;51.344;6.152;2022-07-25T04:21:17;2.83;;;2.22;;
33270;SDS011;53180;51.344;6.152;2022-07-25T04:23:46;4.03;;;2.58;;
33270;SDS011;53180;51.344;6.152;2022-07-25T04:26:15;3.35;;;2.50;;
33270;SDS011;53180;51.344;6.152;2022-07-25T04:28:44;4.40;;;2.50;;
33270;SDS011;53180;51.344;6.152;2022-07-25T04:31:12;4.80;;;2.53;;
33270;SDS011;53180;51.344;6.152;2022-07-25T04:33:41;4.60;;;2.85;;
33270;SDS011;53180;51.344;6.152;2022-07-25T04:36:09;2.90;;;2.20;;
33270;SDS011;53180;51.344;6.152;2022-07-25T04:38:38;3.88;;;2.33;;
33270;SDS011;53180;51.344;6.152;2022-07-25T04:41:08;4.55;;;2.80;;
33270;SDS011;53180;51.344;6.152;2022-07-25T04:43:36;3.78;;;2.17;;
33270;SDS011;53180;51.344;6.152;2022-07-25T04:46:11;3.70;;;2.35;;
33270;SDS011;53180;51.344;6.152;2022-07-25T04:48:40;6.05;;;2.65;;
33270;SDS011;53180;51.344;6.152;2022-07-25T04:51:11;5.78;;;2.85;;
33270;SDS011;53180;51.344;6.152;2022-07-25T04:53:40;4.57;;;2.65;;
33270;SDS011;53180;51.344;6.152;2022-07-25T04:56:09;5.82;;;2.50;;
33270;SDS011;53180;51.344;6.152;2022-07-25T04:58:38;4.47;;;2.60;;
33270;SDS011;53180;51.344;6.152;2022-07-25T05:01:06;3.95;;;2.40;;
33270;SDS011;53180;51.344;6.152;2022-07-25T05:03:35;2.80;;;2.10;;
33270;SDS011;53180;51.344;6.152;2022-07-25T05:06:03;3.90;;;2.15;;
33270;SDS011;53180;51.344;6.152;2022-07-25T05:08:32;4.80;;;2.53;;
33270;SDS011;53180;51.344;6.152;2022-07-25T05:11:00;3.25;;;2.00;;
33270;SDS011;53180;51.344;6.152;2022-07-25T05:13:30;3.63;;;2.22;;
33270;SDS011;53180;51.344;6.152;2022-07-25T05:15:58;4.40;;;2.50;;
33270;SDS011;53180;51.344;6.152;2022-07-25T05:18:27;3.47;;;2.20;;
33270;SDS011;53180;51.344;6.152;2022-07-25T05:20:55;3.38;;;2.38;;
33270;SDS011;53180;51.344;6.152;2022-07-25T05:23:23;3.80;;;2.42;;
33270;SDS011;53180;51.344;6.152;2022-07-25T05:25:52;3.75;;;2.08;;
33270;SDS011;53180;51.344;6.152;2022-07-25T05:28:20;2.85;;;2.00;;
33270;SDS011;53180;51.344;6.152;2022-07-25T05:30:50;3.38;;;2.38;;
33270;SDS011;53180;51.344;6.152;2022-07-25T05:33:18;3.53;;;2.13;;
33270;SDS011;53180;51.344;6.152;2022-07-25T05:35:46;7.47;;;2.20;;
33270;SDS011;53180;51.344;6.152;2022-07-25T05:38:15;3.47;;;2.20;;
33270;SDS011;53180;51.344;6.152;2022-07-25T05:40:43;3.85;;;2.10;;
33270;SDS011;53180;51.344;6.152;2022-07-25T05:43:11;6.25;;;2.05;;
33270;SDS011;53180;51.344;6.152;2022-07-25T05:45:40;4.22;;;2.28;;
33270;SDS011;53180;51.344;6.152;2022-07-25T05:48:10;2.63;;;1.83;;
33270;SDS011;53180;51.344;6.152;2022-07-25T05:50:39;3.95;;;2.13;;
33270;SDS011;53180;51.344;6.152;2022-07-25T05:53:07;2.58;;;1.77;;
33270;SDS011;53180;51.344;6.152;2022-07-25T05:55:36;5.40;;;2.40;;
33270;SDS011;53180;51.344;6.152;2022-07-25T05:58:06;4.30;;;2.27;;
33270;SDS011;53180;51.344;6.152;2022-07-25T06:00:35;4.60;;;2.28;;
33270;SDS011;53180;51.344;6.152;2022-07-25T06:03:04;3.63;;;2.10;;
33270;SDS011;53180;51.344;6.152;2022-07-25T06:05:34;2.63;;;1.80;;
33270;SDS011;53180;51.344;6.152;2022-07-25T06:08:03;3.67;;;2.28;;
33270;SDS011;53180;51.344;6.152;2022-07-25T06:10:32;4.05;;;2.50;;
33270;SDS011;53180;51.344;6.152;2022-07-25T06:13:02;3.13;;;2.47;;
33270;SDS011;53180;51.344;6.152;2022-07-25T06:15:32;3.00;;;2.17;;
33270;SDS011;53180;51.344;6.152;2022-07-25T06:18:01;4.25;;;2.38;;
33270;SDS011;53180;51.344;6.152;2022-07-25T06:20:29;4.15;;;2.25;;
33270;SDS011;53180;51.344;6.152;2022-07-25T06:22:59;3.83;;;2.65;;
33270;SDS011;53180;51.344;6.152;2022-07-25T06:27:57;4.55;;;2.83;;
33270;SDS011;53180;51.344;6.152;2022-07-25T06:30:26;6.63;;;2.83;;
33270;SDS011;53180;51.344;6.152;2022-07-25T06:32:54;5.55;;;2.95;;
33270;SDS011;53180;51.344;6.152;2022-07-25T06:35:23;5.07;;;2.60;;
33270;SDS011;53180;51.344;6.152;2022-07-25T06:37:51;5.78;;;2.20;;
33270;SDS011;53180;51.344;6.152;2022-07-25T06:40:21;3.92;;;2.60;;
33270;SDS011;53180;51.344;6.152;2022-07-25T06:42:49;5.47;;;3.23;;
33270;SDS011;53180;51.344;6.152;2022-07-25T06:45:18;5.13;;;2.75;;
33270;SDS011;53180;51.344;6.152;2022-07-25T06:47:47;3.63;;;2.63;;
33270;SDS011;53180;51.344;6.152;2022-07-25T06:50:16;3.40;;;2.58;;
33270;SDS011;53180;51.344;6.152;2022-07-25T06:52:46;5.07;;;3.22;;
33270;SDS011;53180;51.344;6.152;2022-07-25T06:55:15;4.55;;;3.08;;
33270;SDS011;53180;51.344;6.152;2022-07-25T06:57:45;3.47;;;2.30;;
33270;SDS011;53180;51.344;6.152;2022-07-25T07:00:14;4.22;;;2.15;;
33270;SDS011;53180;51.344;6.152;2022-07-25T07:02:46;3.88;;;2.70;;
33270;SDS011;53180;51.344;6.152;2022-07-25T07:05:17;3.92;;;2.65;;
33270;SDS011;53180;51.344;6.152;2022-07-25T07:07:45;3.67;;;2.65;;
33270;SDS011;53180;51.344;6.152;2022-07-25T07:10:14;3.63;;;2.85;;
33270;SDS011;53180;51.344;6.152;2022-07-25T07:12:43;10.05;;;2.55;;
33270;SDS011;53180;51.344;6.152;2022-07-25T07:15:13;4.05;;;2.72;;
33270;SDS011;53180;51.344;6.152;2022-07-25T07:17:42;4.22;;;3.13;;
33270;SDS011;53180;51.344;6.152;2022-07-25T07:20:10;4.63;;;2.83;;
33270;SDS011;53180;51.344;6.152;2022-07-25T07:22:42;5.38;;;2.90;;
33270;SDS011;53180;51.344;6.152;2022-07-25T07:25:12;7.18;;;3.15;;
33270;SDS011;53180;51.344;6.152;2022-07-25T07:27:42;3.23;;;2.60;;
33270;SDS011;53180;51.344;6.152;2022-07-25T07:30:13;3.10;;;2.45;;
33270;SDS011;53180;51.344;6.152;2022-07-25T07:32:49;3.85;;;2.42;;
33270;SDS011;53180;51.344;6.152;2022-07-25T07:35:18;8.60;;;2.25;;
33270;SDS011;53180;51.344;6.152;2022-07-25T07:37:46;3.83;;;2.67;;
33270;SDS011;53180;51.344;6.152;2022-07-25T07:40:14;4.53;;;2.70;;
33270;SDS011;53180;51.344;6.152;2022-07-25T07:42:45;3.58;;;2.92;;
33270;SDS011;53180;51.344;6.152;2022-07-25T07:45:17;3.50;;;2.60;;
33270;SDS011;53180;51.344;6.152;2022-07-25T07:47:47;3.85;;;2.95;;
33270;SDS011;53180;51.344;6.152;2022-07-25T07:50:18;3.83;;;2.35;;
33270;SDS011;53180;51.344;6.152;2022-07-25T07:52:49;3.08;;;2.58;;
33270;SDS011;53180;51.344;6.152;2022-07-25T07:55:18;3.63;;;2.78;;
33270;SDS011;53180;51.344;6.152;2022-07-25T07:58:06;6.35;;;2.55;;
33270;SDS011;53180;51.344;6.152;2022-07-25T08:00:35;11.27;;;2.50;;
33270;SDS011;53180;51.344;6.152;2022-07-25T08:03:06;2.60;;;1.90;;
33270;SDS011;53180;51.344;6.152;2022-07-25T08:05:36;4.18;;;2.33;;
33270;SDS011;53180;51.344;6.152;2022-07-25T08:08:07;4.10;;;1.80;;
33270;SDS011;53180;51.344;6.152;2022-07-25T08:13:13;4.57;;;1.70;;
33270;SDS011;53180;51.344;6.152;2022-07-25T08:15:44;2.50;;;1.80;;
33270;SDS011;53180;51.344;6.152;2022-07-25T08:18:16;2.92;;;1.90;;
33270;SDS011;53180;51.344;6.152;2022-07-25T08:20:45;1.77;;;1.38;;
33270;SDS011;53180;51.344;6.152;2022-07-25T08:23:14;2.95;;;2.00;;
33270;SDS011;53180;51.344;6.152;2022-07-25T08:25:44;4.75;;;2.50;;
33270;SDS011;53180;51.344;6.152;2022-07-25T08:28:14;2.20;;;1.80;;
33270;SDS011;53180;51.344;6.152;2022-07-25T08:30:42;2.78;;;1.60;;
33270;SDS011;53180;51.344;6.152;2022-07-25T08:33:12;3.80;;;2.33;;
33270;SDS011;53180;51.344;6.152;2022-07-25T08:35:44;2.30;;;1.63;;
33270;SDS011;53180;51.344;6.152;2022-07-25T08:38:14;2.30;;;2.08;;
33270;SDS011;53180;51.344;6.152;2022-07-25T08:40:44;2.95;;;1.75;;
33270;SDS011;53180;51.344;6.152;2022-07-25T08:43:13;2.33;;;1.67;;
33270;SDS011;53180;51.344;6.152;2022-07-25T08:45:44;2.85;;;1.70;;
33270;SDS011;53180;51.344;6.152;2022-07-25T08:48:15;2.75;;;1.90;;
33270;SDS011;53180;51.344;6.152;2022-07-25T08:50:46;2.10;;;1.50;;
33270;SDS011;53180;51.344;6.152;2022-07-25T08:53:16;2.40;;;1.60;;
33270;SDS011;53180;51.344;6.152;2022-07-25T08:56:02;2.22;;;1.73;;
33270;SDS011;53180;51.344;6.152;2022-07-25T08:58:41;1.63;;;1.00;;
33270;SDS011;53180;51.344;6.152;2022-07-25T09:01:10;1.58;;;0.98;;
33270;SDS011;53180;51.344;6.152;2022-07-25T09:03:39;1.63;;;0.98;;
33270;SDS011;53180;51.344;6.152;2022-07-25T09:06:16;1.88;;;1.02;;
33270;SDS011;53180;51.344;6.152;2022-07-25T09:08:50;1.27;;;0.75;;
33270;SDS011;53180;51.344;6.152;2022-07-25T09:11:27;1.92;;;1.17;;
33270;SDS011;53180;51.344;6.152;2022-07-25T09:14:00;1.90;;;1.13;;
33270;SDS011;53180;51.344;6.152;2022-07-25T09:16:33;2.03;;;1.05;;
33270;SDS011;53180;51.344;6.152;2022-07-25T09:19:10;1.95;;;0.95;;
33270;SDS011;53180;51.344;6.152;2022-07-25T09:21:41;2.00;;;1.20;;
33270;SDS011;53180;51.344;6.152;2022-07-25T09:24:16;3.42;;;1.63;;
33270;SDS011;53180;51.344;6.152;2022-07-25T09:26:48;2.30;;;2.10;;
33270;SDS011;53180;51.344;6.152;2022-07-25T09:29:21;2.33;;;1.92;;
33270;SDS011;53180;51.344;6.152;2022-07-25T09:31:53;1.80;;;1.48;;
33270;SDS011;53180;51.344;6.152;2022-07-25T09:34:29;1.73;;;1.30;;
33270;SDS011;53180;51.344;6.152;2022-07-25T09:37:00;2.08;;;0.50;;
33270;SDS011;53180;51.344;6.152;2022-07-25T09:39:37;3.95;;;1.15;;
33270;SDS011;53180;51.344;6.152;2022-07-25T09:42:19;1.58;;;0.80;;
33270;SDS011;53180;51.344;6.152;2022-07-25T09:44:59;1.20;;;1.10;;
33270;SDS011;53180;51.344;6.152;2022-07-25T09:47:34;3.17;;;1.35;;
33270;SDS011;53180;51.344;6.152;2022-07-25T09:50:04;2.22;;;2.00;;
33270;SDS011;53180;51.344;6.152;2022-07-25T09:52:34;1.23;;;0.90;;
33270;SDS011;53180;51.344;6.152;2022-07-25T09:55:04;2.20;;;1.20;;
33270;SDS011;53180;51.344;6.152;2022-07-25T09:57:35;1.58;;;0.65;;
33270;SDS011;53180;51.344;6.152;2022-07-25T10:00:06;1.52;;;0.90;;
33270;SDS011;53180;51.344;6.152;2022-07-25T10:02:42;1.55;;;1.10;;
33270;SDS011;53180;51.344;6.152;2022-07-25T10:05:18;2.33;;;1.20;;
33270;SDS011;53180;51.344;6.152;2022-07-25T10:07:57;1.20;;;0.90;;
33270;SDS011;53180;51.344;6.152;2022-07-25T10:10:28;1.77;;;1.00;;
33270;SDS011;53180;51.344;6.152;2022-07-25T10:12:58;1.65;;;0.90;;
33270;SDS011;53180;51.344;6.152;2022-07-25T10:15:41;1.20;;;0.85;;
33270;SDS011;53180;51.344;6.152;2022-07-25T10:18:15;1.63;;;1.17;;
33270;SDS011;53180;51.344;6.152;2022-07-25T10:20:46;2.70;;;1.23;;
33270;SDS011;53180;51.344;6.152;2022-07-25T10:23:23;1.83;;;0.98;;
33270;SDS011;53180;51.344;6.152;2022-07-25T10:26:00;1.85;;;1.00;;
33270;SDS011;53180;51.344;6.152;2022-07-25T10:28:35;2.38;;;0.90;;
33270;SDS011;53180;51.344;6.152;2022-07-25T10:31:18;1.33;;;0.82;;
33270;SDS011;53180;51.344;6.152;2022-07-25T10:33:50;1.57;;;0.90;;
33270;SDS011;53180;51.344;6.152;2022-07-25T10:36:21;1.88;;;0.73;;
33270;SDS011;53180;51.344;6.152;2022-07-25T10:38:51;3.13;;;0.70;;
33270;SDS011;53180;51.344;6.152;2022-07-25T10:41:23;2.30;;;0.95;;
33270;SDS011;53180;51.344;6.152;2022-07-25T10:46:27;2.80;;;0.80;;
33270;SDS011;53180;51.344;6.152;2022-07-25T10:49:01;1.55;;;0.77;;
33270;SDS011;53180;51.344;6.152;2022-07-25T10:51:32;0.90;;;0.55;;
33270;SDS011;53180;51.344;6.152;2022-07-25T10:54:13;1.65;;;1.55;;
33270;SDS011;53180;51.344;6.152;2022-07-25T10:56:53;2.33;;;1.00;;
33270;SDS011;53180;51.344;6.152;2022-07-25T10:59:27;1.63;;;1.13;;
33270;SDS011;53180;51.344;6.152;2022-07-25T11:02:01;2.80;;;1.20;;
33270;SDS011;53180;51.344;6.152;2022-07-25T11:04:32;1.58;;;1.17;;
33270;SDS011;53180;51.344;6.152;2022-07-25T11:07:10;1.77;;;1.45;;
33270;SDS011;53180;51.344;6.152;2022-07-25T11:09:41;3.70;;;1.17;;
33270;SDS011;53180;51.344;6.152;2022-07-25T11:12:13;3.78;;;2.20;;
33270;SDS011;53180;51.344;6.152;2022-07-25T11:14:42;4.57;;;2.17;;
33270;SDS011;53180;51.344;6.152;2022-07-25T11:17:15;1.23;;;0.82;;
33270;SDS011;53180;51.344;6.152;2022-07-25T11:19:52;0.95;;;0.80;;
33270;SDS011;53180;51.344;6.152;2022-07-25T11:22:22;1.80;;;1.20;;
33270;SDS011;53180;51.344;6.152;2022-07-25T11:24:50;2.13;;;1.73;;
33270;SDS011;53180;51.344;6.152;2022-07-25T11:27:20;2.20;;;2.00;;
33270;SDS011;53180;51.344;6.152;2022-07-25T11:29:50;1.48;;;1.00;;
33270;SDS011;53180;51.344;6.152;2022-07-25T11:32:21;1.52;;;1.23;;
33270;SDS011;53180;51.344;6.152;2022-07-25T11:34:51;1.60;;;1.05;;
33270;SDS011;53180;51.344;6.152;2022-07-25T11:37:20;1.10;;;0.70;;
33270;SDS011;53180;51.344;6.152;2022-07-25T11:39:49;4.15;;;1.70;;
33270;SDS011;53180;51.344;6.152;2022-07-25T11:42:18;1.85;;;0.85;;
33270;SDS011;53180;51.344;6.152;2022-07-25T11:44:48;4.28;;;1.90;;
33270;SDS011;53180;51.344;6.152;2022-07-25T11:47:23;3.47;;;2.65;;
33270;SDS011;53180;51.344;6.152;2022-07-25T11:49:55;3.30;;;1.40;;
33270;SDS011;53180;51.344;6.152;2022-07-25T11:54:56;1.55;;;0.70;;
33270;SDS011;53180;51.344;6.152;2022-07-25T11:57:27;1.30;;;0.90;;
33270;SDS011;53180;51.344;6.152;2022-07-25T11:59:58;1.15;;;0.50;;
33270;SDS011;53180;51.344;6.152;2022-07-25T12:02:29;1.92;;;0.82;;
33270;SDS011;53180;51.344;6.152;2022-07-25T12:05:02;1.85;;;1.00;;
33270;SDS011;53180;51.344;6.152;2022-07-25T12:07:39;1.67;;;1.00;;
33270;SDS011;53180;51.344;6.152;2022-07-25T12:10:12;2.13;;;0.95;;
33270;SDS011;53180;51.344;6.152;2022-07-25T12:12:44;5.10;;;1.00;;
33270;SDS011;53180;51.344;6.152;2022-07-25T12:15:16;2.08;;;1.30;;
33270;SDS011;53180;51.344;6.152;2022-07-25T12:17:48;1.60;;;1.10;;
33270;SDS011;53180;51.344;6.152;2022-07-25T12:20:19;1.13;;;0.70;;
33270;SDS011;53180;51.344;6.152;2022-07-25T12:22:51;1.00;;;0.70;;
33270;SDS011;53180;51.344;6.152;2022-07-25T12:25:22;3.22;;;1.00;;
33270;SDS011;53180;51.344;6.152;2022-07-25T12:27:56;1.67;;;0.80;;
33270;SDS011;53180;51.344;6.152;2022-07-25T12:30:25;1.15;;;0.65;;
33270;SDS011;53180;51.344;6.152;2022-07-25T12:32:57;2.50;;;0.80;;
33270;SDS011;53180;51.344;6.152;2022-07-25T12:35:26;4.10;;;0.90;;
33270;SDS011;53180;51.344;6.152;2022-07-25T12:37:55;1.17;;;0.70;;
33270;SDS011;53180;51.344;6.152;2022-07-25T12:40:24;1.30;;;0.75;;
33270;SDS011;53180;51.344;6.152;2022-07-25T12:42:52;1.17;;;0.60;;
33270;SDS011;53180;51.344;6.152;2022-07-25T12:45:20;2.53;;;0.68;;
33270;SDS011;53180;51.344;6.152;2022-07-25T12:47:49;1.10;;;0.65;;
33270;SDS011;53180;51.344;6.152;2022-07-25T12:50:19;2.70;;;0.90;;
33270;SDS011;53180;51.344;6.152;2022-07-25T12:52:50;1.52;;;0.70;;
33270;SDS011;53180;51.344;6.152;2022-07-25T12:55:19;3.33;;;0.93;;
33270;SDS011;53180;51.344;6.152;2022-07-25T12:57:48;1.55;;;0.77;;
33270;SDS011;53180;51.344;6.152;2022-07-25T13:00:17;2.65;;;2.45;;
33270;SDS011;53180;51.344;6.152;2022-07-25T13:02:49;2.15;;;0.75;;
33270;SDS011;53180;51.344;6.152;2022-07-25T13:05:22;1.90;;;1.30;;
33270;SDS011;53180;51.344;6.152;2022-07-25T13:10:19;2.78;;;0.52;;
33270;SDS011;53180;51.344;6.152;2022-07-25T13:12:48;2.08;;;0.80;;
33270;SDS011;53180;51.344;6.152;2022-07-25T13:15:16;4.32;;;1.02;;
33270;SDS011;53180;51.344;6.152;2022-07-25T13:17:47;2.00;;;0.85;;
33270;SDS011;53180;51.344;6.152;2022-07-25T13:20:16;2.17;;;1.15;;
33270;SDS011;53180;51.344;6.152;2022-07-25T13:22:46;2.53;;;0.70;;
33270;SDS011;53180;51.344;6.152;2022-07-25T13:25:14;0.95;;;0.70;;
33270;SDS011;53180;51.344;6.152;2022-07-25T13:27:43;5.00;;;0.90;;
33270;SDS011;53180;51.344;6.152;2022-07-25T13:30:14;1.30;;;0.85;;
33270;SDS011;53180;51.344;6.152;2022-07-25T13:32:42;1.60;;;1.25;;
33270;SDS011;53180;51.344;6.152;2022-07-25T13:35:10;0.80;;;0.73;;
33270;SDS011;53180;51.344;6.152;2022-07-25T13:37:46;3.05;;;1.25;;
33270;SDS011;53180;51.344;6.152;2022-07-25T13:40:15;1.38;;;0.80;;
33270;SDS011;53180;51.344;6.152;2022-07-25T13:42:43;1.25;;;0.90;;
33270;SDS011;53180;51.344;6.152;2022-07-25T13:45:12;2.20;;;1.40;;
33270;SDS011;53180;51.344;6.152;2022-07-25T13:47:40;1.17;;;1.00;;
33270;SDS011;53180;51.344;6.152;2022-07-25T13:50:09;1.52;;;1.33;;
33270;SDS011;53180;51.344;6.152;2022-07-25T13:52:37;2.47;;;1.45;;
33270;SDS011;53180;51.344;6.152;2022-07-25T13:55:07;2.88;;;2.67;;
33270;SDS011;53180;51.344;6.152;2022-07-25T13:57:37;3.67;;;3.40;;
33270;SDS011;53180;51.344;6.152;2022-07-25T14:00:05;2.55;;;1.60;;
33270;SDS011;53180;51.344;6.152;2022-07-25T14:02:35;3.75;;;1.48;;
33270;SDS011;53180;51.344;6.152;2022-07-25T14:05:04;1.90;;;1.70;;
33270;SDS011;53180;51.344;6.152;2022-07-25T14:07:33;3.78;;;2.75;;
33270;SDS011;53180;51.344;6.152;2022-07-25T14:10:02;1.88;;;1.77;;
33270;SDS011;53180;51.344;6.152;2022-07-25T14:12:35;3.90;;;3.60;;
33270;SDS011;53180;51.344;6.152;2022-07-25T14:15:05;3.72;;;2.78;;
33270;SDS011;53180;51.344;6.152;2022-07-25T14:17:34;3.70;;;2.80;;
33270;SDS011;53180;51.344;6.152;2022-07-25T14:20:04;3.08;;;2.78;;
33270;SDS011;53180;51.344;6.152;2022-07-25T14:22:34;2.80;;;2.60;;
33270;SDS011;53180;51.344;6.152;2022-07-25T14:25:04;4.72;;;2.65;;
33270;SDS011;53180;51.344;6.152;2022-07-25T14:27:33;2.60;;;2.22;;
33270;SDS011;53180;51.344;6.152;2022-07-25T14:32:34;2.72;;;2.10;;
33270;SDS011;53180;51.344;6.152;2022-07-25T14:35:03;2.88;;;2.20;;
33270;SDS011;53180;51.344;6.152;2022-07-25T14:37:32;21.75;;;6.63;;
33270;SDS011;53180;51.344;6.152;2022-07-25T14:40:01;12.20;;;5.53;;
33270;SDS011;53180;51.344;6.152;2022-07-25T14:42:31;2.30;;;1.85;;
33270;SDS011;53180;51.344;6.152;2022-07-25T14:45:01;2.13;;;1.88;;
33270;SDS011;53180;51.344;6.152;2022-07-25T14:47:31;1.00;;;0.70;;
33270;SDS011;53180;51.344;6.152;2022-07-25T14:49:59;2.20;;;0.93;;
33270;SDS011;53180;51.344;6.152;2022-07-25T14:52:27;1.73;;;1.00;;
33270;SDS011;53180;51.344;6.152;2022-07-25T14:54:56;1.50;;;0.73;;
33270;SDS011;53180;51.344;6.152;2022-07-25T14:57:24;2.90;;;1.20;;
33270;SDS011;53180;51.344;6.152;2022-07-25T14:59:53;3.00;;;1.63;;
33270;SDS011;53180;51.344;6.152;2022-07-25T15:02:22;1.60;;;0.95;;
33270;SDS011;53180;51.344;6.152;2022-07-25T15:04:51;2.15;;;0.80;;
33270;SDS011;53180;51.344;6.152;2022-07-25T15:07:19;1.65;;;0.65;;
33270;SDS011;53180;51.344;6.152;2022-07-25T15:09:47;1.73;;;0.88;;
33270;SDS011;53180;51.344;6.152;2022-07-25T15:12:16;1.80;;;0.85;;
33270;SDS011;53180;51.344;6.152;2022-07-25T15:14:45;1.95;;;0.90;;
33270;SDS011;53180;51.344;6.152;2022-07-25T15:17:14;3.13;;;1.00;;
33270;SDS011;53180;51.344;6.152;2022-07-25T15:19:43;1.63;;;0.93;;
33270;SDS011;53180;51.344;6.152;2022-07-25T15:22:12;9.48;;;1.00;;